• Join FlightAware (Why Join?)
  • Login
  • US Flag 
08:40AM EST


 

Airport Tracker/Info


-or-


 

Live Flight TrackerFlight Track Log ✈ EJA922 ✈ 27-Aug-2013 ✈ KMKC - KOMA

Flight Track Log - Related Links

Times and Time Zones

All times are in EDT time to prevent confusion due to time zone crossing. See the EJA922 flight status page for this flight to view local times or setup timezone preferences in your user account.

Time Position Orientation Groundspeed Altitude Reporting Facility
EDT Latitude Longitude Course Direction KTS MPH feet Rate Location/Type
12:01PM 39.0675 -94.6731 229° Southwest 218 251 5,600  Level Kansas City Center
12:02PM 39.0781 -94.7686 278° West 277 319 9,000 2,940 Climbing Kansas City Center
12:03PM 39.1572 -94.7822 352° North 304 350 11,700 2,160 Climbing Kansas City Center
12:04PM 39.2606 -94.8022 351° North 343 395 13,600 1,680 Climbing Kansas City Center
12:05PM 39.3619 -94.8189 353° North 384 442 15,200 1,140 Climbing Kansas City Center
12:07PM 39.4856 -94.8411 352° North 402 463 16,000 360 Climbing Kansas City Center
12:08PM 39.5956 -94.8603 352° North 416 479 16,000  Level Kansas City Center
12:09PM 39.7214 -94.8833 352° North 410 472 16,000  Level Kansas City Center
12:10PM 39.8339 -94.9036 352° North 425 489 16,000  Level Kansas City Center
12:11PM 39.9686 -94.9281 352° North 436 502 16,000  Level Kansas City Center
12:12PM 40.0844 -94.9503 352° North 438 504 16,000  Level Kansas City Center
12:13PM 40.2183 -94.9775 351° North 438 504 16,100  Climbing Kansas City Center
12:14PM 40.3339 -95.0011 351° North 438 504 16,100 -60 Level Kansas City Center
12:14PM 40.4133 -95.0147 353° North 437 503 16,000 -60 Descending Minneapolis Center
12:15PM 40.5336 -95.0375 352° North 438 504 16,000  Level Minneapolis Center
12:16PM 40.6433 -95.0461 357° North 436 502 16,000 -600 Level Minneapolis Center
12:17PM 40.7919 -95.1014 344° North 417 480 14,800 -1,680 Descending Minneapolis Center
12:19PM 40.8583 -95.2203 306° West 391 450 12,000 -2,520 Descending Minneapolis Center
12:19PM 40.9269 -95.3189 313° West 350 403 9,700 -2,220 Descending Minneapolis Center
12:20PM 40.9769 -95.4039 308° West 282 325 7,700 -1,980 Descending Minneapolis Center
12:21PM 41.0258 -95.4725 313° West 278 320 6,000 -900 Descending Minneapolis Center
12:22PM 41.0861 -95.5286 325° Northwest 264 304 6,000  Level Minneapolis Center
12:23PM 41.1464 -95.5822 326° Northwest 282 325 6,000  Level Minneapolis Center
12:24PM 41.1678 -95.6011 326° Northwest 278 320 6,000 -1,320 Level Minneapolis Center
12:25PM 41.2264 -95.6503 328° Northwest 277 319 4,400 -1,200 Descending Minneapolis Center
12:26PM 41.2908 -95.7036 328° Northwest 246 283 4,000 -300 Descending Minneapolis Center
12:27PM 41.3403 -95.7561 321° Northwest 214 246 3,800 -480 Descending Minneapolis Center
12:28PM 41.3644 -95.8328 293° West 203 234 2,900 -780 Descending Minneapolis Center
12:29PM 41.3578 -95.8900 261° West 148 170 2,200 -900 Descending Minneapolis Center
12:30PM 41.3281 -95.9186 216° Southwest 139 160 1,400 -840 Descending Minneapolis Center